Latest Weather Observations for Bradshaw

IDD60801

Issued at 10:01 pm CST Wednesday 29 June 2016 (issued every 30 minutes, with the page automatically refreshed every 10 minutes)

About weather observations | Map of weather stations | Latest weather observations for NT | Other Formats
Station Details ID: 014954 Name: BRADSHAW Lat: -14.94 Lon: 130.81 Height: 75.0 m
Data from the previous 72 hours. | See also: Recent months at Bradshaw
Date/Time
CST
Temp
°C
App
Temp
°C
Dew
Point
°C
Rel
Hum
%
Delta-T
°C
Wind Press
QNH
hPa
Press
MSL
hPa
Rain since
9am
mm
Dir  Spd
km/h
Gust
km/h
Spd
kts
Gust
kts
29/10:00pm 21.2 19.9 3.9 32 8.3 CALM 0 0 0 0 1017.7 - 0.0
29/09:30pm 20.7 18.8 4.7 35 7.8 WSW 4 7 2 4 1017.6 - 0.0
29/09:00pm 20.5 17.4 3.7 33 8.0 W 9 9 5 5 1017.2 1017.0 0.0
29/08:30pm 21.7 19.0 3.9 31 8.6 W 7 9 4 5 1016.9 - 0.0
29/08:00pm 22.7 20.0 3.8 29 9.2 W 7 9 4 5 1016.5 - 0.0
29/07:30pm 25.0 23.3 4.2 26 10.4 S 2 7 1 4 1016.0 - 0.0
29/07:00pm 27.0 24.6 4.1 23 11.6 SSW 6 7 3 4 1015.6 - 0.0
29/06:30pm 29.0 26.2 3.1 19 13.0 E 7 13 4 7 1015.1 - 0.0
29/06:00pm 30.5 26.6 3.5 18 13.8 E 13 17 7 9 1014.7 1014.4 0.0
29/05:30pm 31.1 26.8 3.2 17 14.2 E 15 20 8 11 1014.4 - 0.0
29/05:00pm 31.3 27.4 3.4 17 14.3 SE 13 24 7 13 1014.3 - 0.0
29/04:30pm 31.7 26.6 2.8 16 14.7 S 19 22 10 12 1014.2 - 0.0
29/04:00pm 31.4 28.1 2.6 16 14.6 ESE 9 17 5 9 1014.3 - 0.0
29/03:30pm 30.9 27.3 3.0 17 14.2 E 11 19 6 10 1014.5 - 0.0
29/03:00pm 30.4 26.7 2.6 17 14.0 ESE 11 22 6 12 1014.8 1014.6 0.0
29/02:30pm 30.4 27.0 4.2 19 13.5 SE 11 20 6 11 1015.2 - 0.0
29/02:00pm 29.3 25.1 4.0 20 12.9 E 15 26 8 14 1015.8 - 0.0
29/01:30pm 28.8 24.7 4.3 21 12.5 E 15 28 8 15 1016.4 - 0.0
29/01:00pm 28.7 24.7 4.9 22 12.3 E 15 26 8 14 1017.1 - 0.0
29/12:30pm 27.8 23.3 4.2 22 12.0 ESE 17 26 9 14 1017.7 - 0.0
29/12:00pm 27.6 23.2 4.6 23 11.7 ESE 17 28 9 15 1018.4 1018.2 0.0
29/11:30am 26.9 21.9 4.6 24 11.3 E 20 28 11 15 1019.0 - 0.0
29/11:00am 26.2 21.1 4.1 24 11.1 E 20 32 11 17 1019.3 - 0.0
29/10:30am 25.4 20.5 4.0 25 10.7 E 19 30 10 16 1019.8 - 0.0
29/10:00am 24.4 18.8 3.7 26 10.2 E 22 32 12 17 1020.1 - 0.0
29/09:30am 23.4 18.0 4.4 29 9.4 E 22 32 12 17 1020.1 - 0.0
29/09:00am 22.0 15.9 4.6 32 8.5 E 26 35 14 19 1019.9 1019.7 0.0
29/08:30am 20.9 15.2 4.9 35 7.9 E 24 35 13 19 1019.8 - 0.0
29/08:00am 20.0 15.9 6.0 40 7.0 E 17 26 9 14 1019.8 - 0.0
29/07:30am 19.5 17.1 6.9 44 6.4 ESE 9 15 5 8 1019.7 - 0.0
29/07:00am 20.0 16.5 7.4 44 6.5 ESE 15 24 8 13 1019.3 - 0.0
29/06:30am 20.2 16.9 7.9 45 6.4 ESE 15 20 8 11 1019.1 - 0.0
29/06:00am 20.5 18.1 8.5 46 6.3 E 11 17 6 9 1018.6 1018.4 0.0
29/05:30am 20.9 18.2 8.9 46 6.4 E 13 20 7 11 1018.3 - 0.0
29/05:00am 21.2 18.5 9.1 46 6.5 E 13 17 7 9 1018.0 - 0.0
29/04:30am 21.4 18.8 9.3 46 6.5 E 13 17 7 9 1017.9 - 0.0
29/04:00am 21.5 19.5 10.0 48 6.2 ENE 11 17 6 9 1017.9 - 0.0
29/03:30am 21.2 21.2 9.8 48 6.2 CALM 0 6 0 3 1017.8 - 0.0
29/03:00am 22.9 20.9 10.0 44 7.0 E 11 19 6 10 1017.8 1017.6 0.0
29/02:30am 21.4 21.0 9.9 48 6.2 N 2 9 1 5 1017.9 - 0.0
29/02:00am 21.7 21.6 9.6 46 6.5 CALM 0 4 0 2 1017.8 - 0.0
29/01:30am 22.8 21.5 9.9 44 7.0 ENE 7 9 4 5 1017.8 - 0.0
29/01:00am 23.6 22.0 10.3 43 7.3 E 9 13 5 7 1017.7 - 0.0
29/12:30am 24.0 21.9 9.9 41 7.7 ENE 11 13 6 7 1017.5 - 0.0
29/12:00am 25.0 23.0 10.1 39 8.2 E 11 15 6 8 1017.3 1017.1 0.0
 
Date/Time
CST
Temp
°C
App
Temp
°C
Dew
Point
°C
Rel
Hum
%
Delta-T
°C
Wind Press
QNH
hPa
Press
MSL
hPa
Rain since
9am
mm
Dir  Spd
km/h
Gust
km/h
Spd
kts
Gust
kts
28/11:30pm 21.6 20.7 10.7 50 6.0 ENE 6 7 3 4 1017.4 - 0.0
28/11:00pm 21.6 21.3 10.1 48 6.3 E 2 6 1 3 1017.5 - 0.0
28/10:30pm 21.2 20.3 10.7 51 5.8 ENE 6 9 3 5 1017.4 - 0.0
28/10:00pm 23.9 22.2 9.9 41 7.7 ENE 9 11 5 6 1017.3 - 0.0
28/09:30pm 24.2 23.1 10.1 41 7.8 ESE 6 11 3 6 1017.2 - 0.0
28/09:00pm 25.5 23.8 9.7 37 8.7 E 9 11 5 6 1017.0 1016.8 0.0
28/08:30pm 27.0 25.3 9.8 34 9.6 E 9 11 5 6 1016.8 - 0.0
28/08:00pm 27.5 25.7 9.3 32 10.1 E 9 11 5 6 1016.5 - 0.0
28/07:30pm 28.6 26.4 9.3 30 10.7 E 11 15 6 8 1016.0 - 0.0
28/07:00pm 29.7 26.7 9.3 28 11.4 E 15 20 8 11 1015.7 - 0.0
28/06:30pm 30.6 27.3 9.5 27 11.9 ESE 17 24 9 13 1015.2 - 0.0
28/06:00pm 31.6 27.6 9.2 25 12.6 ESE 20 30 11 16 1014.8 1014.6 0.0
28/05:30pm 32.5 28.6 9.3 24 13.2 E 20 32 11 17 1014.3 - 0.0
28/05:00pm 32.6 28.5 8.8 23 13.4 E 20 32 11 17 1014.2 - 0.0
28/04:30pm 32.8 28.3 10.2 25 13.0 E 24 32 13 17 1014.0 - 0.0
28/04:00pm 32.8 29.1 10.2 25 13.0 E 20 32 11 17 1014.0 - 0.0
28/03:30pm 32.4 28.4 10.4 26 12.7 ESE 22 32 12 17 1014.2 - 0.0
28/03:00pm 32.0 28.9 11.7 28 11.9 E 19 30 10 16 1014.4 1014.1 0.0
28/02:30pm 31.0 28.5 12.4 32 11.0 SE 17 28 9 15 1014.8 - 0.0
28/02:00pm 31.0 27.7 12.8 32 10.8 E 22 28 12 15 1015.2 - 0.0
28/01:30pm 30.3 27.5 13.1 34 10.3 E 20 28 11 15 1015.7 - 0.0
28/01:00pm 29.9 27.1 13.2 36 10.0 E 20 30 11 16 1016.1 - 0.0
28/12:30pm 29.1 26.3 13.3 37 9.4 E 20 30 11 16 1016.8 - 0.0
28/12:00pm 28.3 25.7 13.8 41 8.7 ESE 20 32 11 17 1017.3 1017.1 0.0
28/11:30am 27.7 24.8 14.0 43 8.2 E 22 35 12 19 1017.7 - 0.0
28/11:00am 27.3 24.4 12.9 41 8.5 ENE 20 39 11 21 1018.2 - 0.0
28/10:30am 25.8 22.7 11.6 41 8.1 ESE 19 26 10 14 1018.5 - 0.0
28/10:00am 25.2 22.6 10.6 40 8.2 ESE 15 20 8 11 1018.5 - 0.0
28/09:30am 24.3 20.7 9.8 40 8.0 ESE 19 28 10 15 1018.6 - 0.0
28/09:00am 23.7 19.9 9.7 41 7.6 ESE 20 33 11 18 1018.6 1018.4 0.0
28/08:30am 22.6 19.2 9.0 42 7.3 ESE 17 24 9 13 1018.2 - 0.0
28/08:00am 22.2 20.4 9.4 44 6.9 SE 9 15 5 8 1017.7 - 0.0
28/07:30am 21.4 19.6 9.6 47 6.4 SSE 9 17 5 9 1017.4 - 0.0
28/07:00am 21.6 19.4 9.5 46 6.5 ESE 11 15 6 8 1017.0 - 0.0
28/06:30am 22.0 19.8 9.5 45 6.7 ESE 11 15 6 8 1016.6 - 0.0
28/06:00am 22.6 19.3 9.4 43 7.1 SE 17 26 9 14 1016.2 1016.0 0.0
28/05:30am 22.8 19.5 9.6 43 7.2 ESE 17 24 9 13 1015.8 - 0.0
28/05:00am 23.1 19.8 9.5 42 7.4 ESE 17 22 9 12 1015.5 - 0.0
28/04:30am 23.5 20.2 9.5 41 7.6 ESE 17 24 9 13 1015.4 - 0.0
28/04:00am 23.7 20.3 9.3 40 7.8 ESE 17 24 9 13 1015.4 - 0.0
28/03:30am 24.0 21.8 9.2 39 8.0 E 11 19 6 10 1015.4 - 0.0
28/03:00am 24.3 21.6 9.1 38 8.2 ESE 13 22 7 12 1015.4 1015.2 0.0
28/02:30am 24.7 22.5 9.4 38 8.4 E 11 19 6 10 1015.8 - 0.0
28/02:00am 25.1 23.3 9.4 37 8.6 ENE 9 15 5 8 1015.9 - 0.0
28/01:30am 25.3 24.1 9.6 37 8.6 ENE 6 9 3 5 1015.8 - 0.0
28/01:00am 26.3 23.8 9.6 35 9.2 ESE 13 24 7 13 1015.7 - 0.0
28/12:30am 25.9 24.5 9.7 36 9.0 E 7 13 4 7 1015.9 - 0.0
28/12:00am 26.5 25.3 10.2 36 9.1 E 7 13 4 7 1016.0 1015.8 0.0
 
Date/Time
CST
Temp
°C
App
Temp
°C
Dew
Point
°C
Rel
Hum
%
Delta-T
°C
Wind Press
QNH
hPa
Press
MSL
hPa
Rain since
9am
mm
Dir  Spd
km/h
Gust
km/h
Spd
kts
Gust
kts
27/11:30pm 26.8 24.9 10.5 36 9.2 E 11 17 6 9 1015.9 - 0.0
27/11:00pm 27.5 25.9 10.2 34 9.7 E 9 11 5 6 1015.8 - 0.0
27/10:30pm 28.0 26.0 11.5 35 9.5 E 13 19 7 10 1015.6 - 0.0
27/10:00pm 25.4 25.0 11.2 41 8.0 NNE 4 7 2 4 1015.3 - 0.0
27/09:30pm 25.2 24.0 10.3 39 8.3 NE 7 9 4 5 1015.0 - 0.0
27/09:00pm 25.1 25.3 10.6 40 8.1 CALM 0 0 0 0 1014.8 1014.6 0.0
27/08:30pm 28.7 27.2 10.4 32 10.4 E 9 13 5 7 1014.5 - 0.0
27/08:00pm 28.7 27.2 10.4 32 10.4 E 9 11 5 6 1014.0 - 0.0
27/07:30pm 29.5 27.9 10.1 30 11.0 ENE 9 11 5 6 1013.6 - 0.0
27/07:00pm 31.3 29.3 10.1 27 12.1 E 11 17 6 9 1013.2 - 0.0
27/06:30pm 32.3 29.4 9.8 25 12.9 E 15 19 8 10 1012.8 - 0.0
27/06:00pm 33.3 30.0 9.4 23 13.6 E 17 24 9 13 1012.3 1012.0 0.0
27/05:30pm 34.0 30.1 9.3 22 14.1 E 20 28 11 15 1012.0 - 0.0
27/05:00pm 34.3 30.4 9.5 22 14.2 E 20 30 11 16 1011.8 - 0.0
27/04:30pm 34.2 30.7 10.1 23 13.9 E 19 30 10 16 1011.7 - 0.0
27/04:00pm 34.3 31.6 10.2 23 14.0 E 15 22 8 12 1011.7 - 0.0
27/03:30pm 34.1 30.9 10.0 23 13.9 E 17 26 9 14 1011.8 - 0.0
27/03:00pm 33.6 30.5 10.2 24 13.5 E 17 24 9 13 1012.0 1011.7 0.0
27/02:30pm 34.2 31.4 10.1 23 13.9 E 15 20 8 11 1012.3 - 0.0
27/02:00pm 33.7 30.6 10.3 24 13.6 E 17 26 9 14 1012.8 - 0.0
27/01:30pm 32.9 30.0 10.9 26 12.8 ESE 17 24 9 13 1013.3 - 0.0
27/01:00pm 32.4 29.5 11.0 27 12.5 SE 17 26 9 14 1013.9 - 0.0
27/12:30pm 31.5 29.2 11.8 30 11.6 SE 15 24 8 13 1014.5 - 0.0
27/12:00pm 31.1 28.5 12.0 31 11.2 SE 17 30 9 16 1014.9 1014.7 0.0
27/11:30am 29.9 27.5 11.4 32 10.7 ESE 15 26 8 14 1015.3 - 0.0
27/11:00am 29.4 27.5 11.9 34 10.2 SE 13 20 7 11 1015.7 - 0.0
27/10:30am 28.6 26.0 12.1 36 9.6 SE 17 24 9 13 1015.9 - 0.0
27/10:00am 28.0 25.5 12.4 38 9.1 ESE 17 24 9 13 1016.1 - 0.0
27/09:30am 27.5 25.4 12.3 39 8.8 SE 15 24 8 13 1016.0 - 0.0
27/09:00am 26.5 26.1 12.5 41 8.1 SSE 6 9 3 5 1015.8 1015.6 0.0
27/08:30am 24.3 24.8 12.9 49 6.6 S 2 7 1 4 1015.7 - 0.0
27/08:00am 22.6 22.2 12.5 53 5.8 S 6 9 3 5 1015.4 - 0.0
27/07:30am 20.7 21.2 12.9 61 4.4 SW 2 7 1 4 1015.1 - 0.0
27/07:00am 20.2 20.5 12.2 60 4.5 SW 2 7 1 4 1014.6 - 0.0
27/06:30am 20.8 20.8 13.7 64 4.1 WSW 6 7 3 4 1014.2 - 0.0
27/06:00am 20.8 21.4 13.0 61 4.5 WNW 2 7 1 4 1014.0 1013.7 0.0
27/05:30am 22.6 22.7 13.9 58 5.1 WNW 6 11 3 6 1013.6 - 0.0
27/05:00am 22.8 22.9 13.8 57 5.3 NNW 6 11 3 6 1013.5 - 0.0
27/04:30am 22.3 22.0 13.4 57 5.2 N 7 9 4 5 1012.7 - 0.0
27/04:00am 23.2 22.6 14.5 58 5.2 N 11 15 6 8 1012.5 - 0.0
27/03:30am 21.6 20.8 13.0 58 4.9 N 9 11 5 6 1012.7 - 0.0
27/03:00am 22.9 22.4 13.7 56 5.4 N 9 11 5 6 1012.9 1012.6 0.0
27/02:30am 22.6 21.7 13.7 57 5.2 N 11 11 6 6 1013.3 - 0.0
27/02:00am 22.9 22.8 13.4 55 5.5 N 6 11 3 6 1013.6 - 0.0
27/01:30am 22.7 22.3 12.9 54 5.6 N 7 9 4 5 1013.4 - 0.0
27/01:00am 24.5 25.8 14.0 52 6.2 CALM 0 0 0 0 1013.5 - 0.0
27/12:30am 24.4 25.2 12.4 47 6.9 CALM 0 6 0 3 1013.4 - 0.0
27/12:00am 23.2 22.7 12.8 52 6.0 N 7 9 4 5 1013.4 1013.1 0.0
 
Date/Time
CST
Temp
°C
App
Temp
°C
Dew
Point
°C
Rel
Hum
%
Delta-T
°C
Wind Press
QNH
hPa
Press
MSL
hPa
Rain since
9am
mm
Dir  Spd
km/h
Gust
km/h
Spd
kts
Gust
kts
26/11:30pm 24.0 24.2 12.9 50 6.4 N 4 7 2 4 1013.4 - 0.0
26/11:00pm 24.4 24.8 12.4 47 6.9 E 2 6 1 3 1013.4 - 0.0
26/10:30pm 24.7 25.1 11.3 43 7.6 CALM 0 0 0 0 1013.4 - 0.0

Other Formats:

Comma delimited format used in spreadsheet applications
http://www.bom.gov.au/fwo/IDD60801/IDD60801.94130.axf

JavaScript Object Notation format (JSON) in row-major order
http://www.bom.gov.au/fwo/IDD60801/IDD60801.94130.json